createdAt,value
2023-04-07T00:00:12.028Z,0.00
2023-04-07T00:00:35.083Z,0.00
2023-04-07T00:00:59.688Z,0.00
2023-04-07T00:01:31.457Z,0.00
2023-04-07T00:02:20.336Z,0.00
2023-04-07T00:02:43.720Z,0.00
2023-04-07T00:03:23.495Z,0.00
2023-04-07T00:03:40.596Z,0.00
2023-04-07T00:04:11.601Z,0.00
2023-04-07T00:04:35.029Z,0.00
2023-04-07T00:04:59.390Z,0.00
2023-04-07T00:05:31.568Z,0.00
2023-04-07T00:06:21.760Z,0.00
2023-04-07T00:06:41.016Z,0.00
2023-04-07T00:07:07.314Z,0.00
2023-04-07T00:07:44.996Z,0.00
2023-04-07T00:07:56.916Z,0.00
2023-04-07T00:08:27.346Z,0.00
2023-04-07T00:08:59.363Z,0.00
2023-04-07T00:09:33.073Z,0.00
2023-04-07T00:10:36.794Z,0.00
2023-04-07T00:11:35.947Z,0.00
2023-04-07T00:12:36.619Z,0.00
2023-04-07T00:13:15.571Z,0.00
2023-04-07T00:13:37.019Z,0.00
2023-04-07T00:14:03.389Z,0.00
2023-04-07T00:14:35.469Z,0.00
2023-04-07T00:15:07.992Z,0.00
2023-04-07T00:15:35.076Z,0.00
2023-04-07T00:16:12.400Z,0.00
2023-04-07T00:16:35.006Z,0.00
2023-04-07T00:16:59.453Z,0.00
2023-04-07T00:17:31.439Z,0.00
2023-04-07T00:18:35.992Z,0.00
2023-04-07T00:19:07.415Z,0.00
2023-04-07T00:19:36.393Z,0.00
2023-04-07T00:19:55.372Z,0.00
2023-04-07T00:20:27.630Z,0.00
2023-04-07T00:20:59.339Z,0.00
2023-04-07T00:21:31.327Z,0.00
2023-04-07T00:22:03.315Z,0.00
2023-04-07T00:22:35.355Z,0.00
2023-04-07T00:23:07.344Z,0.00
2023-04-07T00:23:34.964Z,0.00
2023-04-07T00:23:55.674Z,0.00
2023-04-07T00:24:34.463Z,0.00
2023-04-07T00:24:59.387Z,0.00
2023-04-07T00:25:31.654Z,0.00
2023-04-07T00:26:04.213Z,0.00
2023-04-07T00:26:35.367Z,0.00
2023-04-07T00:27:07.701Z,0.00
2023-04-07T00:27:34.940Z,0.00
2023-04-07T00:27:55.296Z,0.00
2023-04-07T00:28:27.348Z,0.00
2023-04-07T00:28:59.333Z,0.00
2023-04-07T00:29:31.322Z,0.00
2023-04-07T00:30:03.943Z,0.00
2023-04-07T00:30:35.353Z,0.00
2023-04-07T00:31:23.411Z,0.00
2023-04-07T00:31:40.680Z,0.00
2023-04-07T00:32:28.753Z,0.00
2023-04-07T00:32:59.402Z,0.00
2023-04-07T00:33:31.494Z,0.00
2023-04-07T00:34:03.362Z,0.00
2023-04-07T00:34:35.388Z,0.00
2023-04-07T00:35:07.633Z,0.00
2023-04-07T00:35:36.867Z,0.00
2023-04-07T00:35:55.579Z,0.00
2023-04-07T00:36:27.363Z,0.00
2023-04-07T00:36:59.354Z,0.00
2023-04-07T00:37:31.318Z,0.00
2023-04-07T00:38:19.407Z,0.00
2023-04-07T00:38:41.766Z,0.00
2023-04-07T00:39:07.324Z,0.00
2023-04-07T00:39:34.976Z,0.00
2023-04-07T00:39:55.355Z,0.00
2023-04-07T00:40:28.167Z,0.00
2023-04-07T00:40:59.689Z,0.00
2023-04-07T00:41:34.143Z,0.00
2023-04-07T00:42:04.439Z,0.00
2023-04-07T00:42:36.916Z,0.00
2023-04-07T00:43:07.355Z,0.00
2023-04-07T00:43:35.141Z,0.00
2023-04-07T00:43:56.073Z,0.00
2023-04-07T00:44:29.126Z,0.00
2023-04-07T00:45:17.466Z,0.00
2023-04-07T00:45:37.493Z,0.00
2023-04-07T00:46:03.730Z,0.00
2023-04-07T00:46:35.521Z,0.00
2023-04-07T00:47:07.512Z,0.00
2023-04-07T00:47:35.172Z,0.00
2023-04-07T00:47:55.930Z,0.00
2023-04-07T00:48:28.351Z,0.00
2023-04-07T00:48:59.546Z,0.00
2023-04-07T00:49:31.566Z,0.00
2023-04-07T00:50:05.256Z,0.00
2023-04-07T00:50:41.271Z,0.00
2023-04-07T00:51:23.388Z,0.00
2023-04-07T00:51:41.616Z,0.00
2023-04-07T00:52:11.505Z,0.00
2023-04-07T00:52:35.720Z,0.00
2023-04-07T00:52:59.340Z,0.00
2023-04-07T00:53:31.446Z,0.00
2023-04-07T00:54:03.345Z,0.00
2023-04-07T00:54:35.345Z,0.00
2023-04-07T00:55:07.715Z,0.00
2023-04-07T00:55:34.976Z,0.00
2023-04-07T00:55:55.628Z,0.00
2023-04-07T00:56:27.389Z,0.00
2023-04-07T00:56:59.386Z,0.00
2023-04-07T00:57:31.945Z,0.00
2023-04-07T00:58:04.279Z,0.00
2023-04-07T00:58:35.417Z,0.00
2023-04-07T00:59:07.466Z,0.00
2023-04-07T00:59:35.033Z,0.00
2023-04-07T00:59:55.436Z,0.00
2023-04-07T01:00:28.482Z,0.00
2023-04-07T01:01:00.905Z,0.00
2023-04-07T01:01:31.481Z,0.00
2023-04-07T01:02:03.567Z,0.00
2023-04-07T01:02:35.662Z,0.00
2023-04-07T01:03:07.695Z,0.00
2023-04-07T01:03:35.599Z,0.00
2023-04-07T01:03:55.885Z,0.00
2023-04-07T01:04:28.600Z,0.00
2023-04-07T01:04:59.542Z,0.00
2023-04-07T01:05:32.182Z,0.00
2023-04-07T01:06:03.451Z,0.00
2023-04-07T01:06:35.656Z,0.00
2023-04-07T01:07:07.420Z,0.00
2023-04-07T01:07:35.761Z,0.00
2023-04-07T01:07:55.422Z,0.00
2023-04-07T01:08:27.421Z,0.00
2023-04-07T01:08:59.460Z,0.00
2023-04-07T01:09:31.374Z,0.00
2023-04-07T01:10:03.729Z,0.00
2023-04-07T01:10:35.341Z,0.00
2023-04-07T01:11:07.473Z,0.00
2023-04-07T01:11:34.981Z,0.00
2023-04-07T01:11:55.408Z,0.00
2023-04-07T01:12:27.395Z,0.00
2023-04-07T01:12:59.396Z,0.00
2023-04-07T01:13:31.330Z,0.00
2023-04-07T01:14:04.261Z,0.00
2023-04-07T01:14:35.390Z,0.00
2023-04-07T01:15:35.826Z,0.00
2023-04-07T01:15:55.519Z,0.00
2023-04-07T01:16:27.450Z,0.00
2023-04-07T01:16:59.414Z,0.00
2023-04-07T01:17:31.351Z,0.00
2023-04-07T01:18:19.424Z,0.00
2023-04-07T01:18:41.018Z,0.00
2023-04-07T01:19:23.454Z,0.00
2023-04-07T01:19:40.583Z,0.00
2023-04-07T01:20:11.698Z,0.00
2023-04-07T01:20:34.966Z,0.00
2023-04-07T01:20:59.659Z,0.00
2023-04-07T01:21:31.381Z,0.00
2023-04-07T01:22:03.378Z,0.00
2023-04-07T01:22:35.381Z,0.00
2023-04-07T01:23:07.503Z,0.00
2023-04-07T01:23:35.683Z,0.00
2023-04-07T01:24:11.689Z,0.00
2023-04-07T01:24:35.455Z,0.00
2023-04-07T01:24:59.383Z,0.00
2023-04-07T01:25:31.641Z,0.00
2023-04-07T01:26:19.360Z,0.00
2023-04-07T01:26:41.783Z,0.00
2023-04-07T01:27:34.949Z,0.00
2023-04-07T01:27:55.377Z,0.00
2023-04-07T01:28:27.362Z,0.00
2023-04-07T01:29:15.403Z,0.00
2023-04-07T01:29:37.430Z,0.00
2023-04-07T01:30:04.009Z,0.00
2023-04-07T01:30:35.415Z,0.00
2023-04-07T01:31:07.493Z,0.00
2023-04-07T01:31:35.032Z,0.00
2023-04-07T01:31:55.460Z,0.00
2023-04-07T01:32:27.442Z,0.00
2023-04-07T01:33:00.256Z,0.00
2023-04-07T01:33:31.377Z,0.00
2023-04-07T01:34:19.402Z,0.00
2023-04-07T01:34:41.002Z,0.00
2023-04-07T01:35:07.679Z,0.00
2023-04-07T01:35:34.978Z,0.00
2023-04-07T01:36:28.256Z,0.00
2023-04-07T01:36:59.411Z,0.00
2023-04-07T01:37:31.381Z,0.00
2023-04-07T01:38:03.389Z,0.00
2023-04-07T01:38:35.391Z,0.00
2023-04-07T01:39:07.383Z,0.00
2023-04-07T01:39:37.143Z,0.00
2023-04-07T01:40:11.664Z,0.00
2023-04-07T01:40:35.601Z,0.00
2023-04-07T01:40:59.654Z,0.00
2023-04-07T01:41:37.419Z,0.00
2023-04-07T01:42:19.427Z,0.00
2023-04-07T01:42:41.758Z,0.00
2023-04-07T01:43:07.418Z,0.00
2023-04-07T01:43:34.967Z,0.00
2023-04-07T01:43:55.728Z,0.00
2023-04-07T01:44:27.401Z,0.00
2023-04-07T01:44:59.717Z,0.00
2023-04-07T01:45:31.844Z,0.00
2023-04-07T01:46:03.786Z,0.00
2023-04-07T01:46:35.403Z,0.00
2023-04-07T01:47:07.659Z,0.00
2023-04-07T01:47:35.051Z,0.00
2023-04-07T01:47:55.440Z,0.00
2023-04-07T01:48:27.355Z,0.00
2023-04-07T01:49:00.107Z,0.00
2023-04-07T01:49:31.357Z,0.00
2023-04-07T01:50:03.762Z,0.00
2023-04-07T01:50:35.362Z,0.00
2023-04-07T01:51:07.446Z,0.00
2023-04-07T01:51:34.959Z,0.00
2023-04-07T01:52:12.147Z,0.00
2023-04-07T01:52:34.970Z,0.00
2023-04-07T01:52:59.390Z,0.00
2023-04-07T01:53:37.369Z,0.00
2023-04-07T01:54:03.361Z,0.00
2023-04-07T01:54:35.391Z,0.00
2023-04-07T01:55:07.752Z,0.00
2023-04-07T01:55:37.003Z,0.00
2023-04-07T01:56:11.400Z,0.00
2023-04-07T01:56:34.996Z,0.00
2023-04-07T01:56:59.569Z,0.00
2023-04-07T01:57:31.329Z,0.00
2023-04-07T01:58:19.367Z,0.00
2023-04-07T01:58:41.672Z,0.00
2023-04-07T01:59:23.423Z,0.00
2023-04-07T01:59:40.629Z,0.00
2023-04-07T02:00:12.003Z,0.00
2023-04-07T02:00:34.977Z,0.00
2023-04-07T02:01:15.439Z,0.00
2023-04-07T02:01:37.701Z,0.00
2023-04-07T02:02:03.508Z,0.00
2023-04-07T02:02:35.777Z,0.00
2023-04-07T02:03:07.578Z,0.00
2023-04-07T02:03:35.013Z,0.00
2023-04-07T02:03:55.715Z,0.00
2023-04-07T02:04:34.948Z,0.00
2023-04-07T02:05:32.563Z,0.00
2023-04-07T02:06:03.695Z,0.00
2023-04-07T02:06:35.399Z,0.00
2023-04-07T02:07:07.422Z,0.00
2023-04-07T02:07:34.954Z,0.00
2023-04-07T02:08:27.365Z,0.00
2023-04-07T02:08:59.397Z,0.00
2023-04-07T02:09:31.383Z,0.00
2023-04-07T02:10:03.779Z,0.00
2023-04-07T02:10:35.409Z,0.00
2023-04-07T02:11:07.695Z,0.00
2023-04-07T02:11:34.976Z,0.00
2023-04-07T02:11:56.098Z,0.00
2023-04-07T02:12:27.397Z,0.00
2023-04-07T02:12:59.371Z,0.00
2023-04-07T02:13:37.486Z,0.00
2023-04-07T02:14:03.355Z,0.00
2023-04-07T02:14:35.374Z,0.00
2023-04-07T02:15:08.735Z,0.00
2023-04-07T02:15:34.964Z,0.00
2023-04-07T02:16:12.984Z,0.00
2023-04-07T02:16:34.985Z,0.00
2023-04-07T02:16:59.418Z,0.00
2023-04-07T02:17:31.728Z,0.00
2023-04-07T02:18:03.426Z,0.00
2023-04-07T02:18:35.404Z,0.00
2023-04-07T02:19:07.414Z,0.00
2023-04-07T02:19:34.941Z,0.00
2023-04-07T02:19:55.346Z,0.00
2023-04-07T02:20:27.899Z,0.00
2023-04-07T02:20:59.431Z,0.00
2023-04-07T02:21:32.058Z,0.00
2023-04-07T02:22:03.344Z,0.00
2023-04-07T02:22:40.982Z,0.00
2023-04-07T02:23:07.352Z,0.00
2023-04-07T02:23:34.938Z,0.00
2023-04-07T02:23:55.885Z,0.00
2023-04-07T02:24:27.420Z,0.00
2023-04-07T02:24:59.410Z,0.00
2023-04-07T02:26:03.446Z,0.00
2023-04-07T02:26:35.639Z,0.00
2023-04-07T02:27:07.417Z,0.00
2023-04-07T02:27:34.960Z,0.00
2023-04-07T02:27:56.059Z,0.00
2023-04-07T02:28:27.351Z,0.00
2023-04-07T02:28:59.412Z,0.00
2023-04-07T02:29:31.391Z,0.00
2023-04-07T02:30:04.078Z,0.00
2023-04-07T02:30:35.584Z,0.00
2023-04-07T02:31:24.118Z,0.00
2023-04-07T02:32:27.390Z,0.00
2023-04-07T02:32:59.448Z,0.00
2023-04-07T02:33:31.399Z,0.00
2023-04-07T02:34:03.412Z,0.00
2023-04-07T02:34:42.561Z,0.00
2023-04-07T02:35:07.881Z,0.00
2023-04-07T02:35:34.952Z,0.00
2023-04-07T02:35:55.626Z,0.00
2023-04-07T02:36:31.346Z,0.00
2023-04-07T02:37:16.796Z,0.00
2023-04-07T02:37:37.584Z,0.00
2023-04-07T02:38:36.517Z,0.00
2023-04-07T02:39:23.382Z,0.00
2023-04-07T02:39:40.526Z,0.00
2023-04-07T02:40:11.668Z,0.00
2023-04-07T02:40:34.957Z,0.00
2023-04-07T02:40:59.727Z,0.00
2023-04-07T02:41:31.364Z,0.00
2023-04-07T02:42:03.387Z,0.00
2023-04-07T02:42:41.008Z,0.00
2023-04-07T02:43:07.495Z,0.00
2023-04-07T02:43:35.104Z,0.00
2023-04-07T02:43:55.604Z,0.00
2023-04-07T02:44:27.419Z,0.00
2023-04-07T02:45:02.284Z,0.00
2023-04-07T02:45:31.479Z,0.00
2023-04-07T02:46:35.504Z,0.00
2023-04-07T02:47:07.530Z,0.00
2023-04-07T02:47:35.339Z,0.00
2023-04-07T02:47:55.526Z,0.00
2023-04-07T02:48:27.474Z,0.00
2023-04-07T02:48:59.480Z,0.00
2023-04-07T02:49:37.532Z,0.00
2023-04-07T02:50:35.767Z,0.00
2023-04-07T02:51:07.569Z,0.00
2023-04-07T02:51:37.572Z,0.00
2023-04-07T02:52:27.632Z,0.00
2023-04-07T02:52:59.489Z,0.00
2023-04-07T02:53:31.386Z,0.00
2023-04-07T02:54:19.409Z,0.00
2023-04-07T02:54:41.742Z,0.00
2023-04-07T02:55:07.806Z,0.00
2023-04-07T02:55:35.459Z,0.00
2023-04-07T02:56:11.348Z,0.00
2023-04-07T02:56:34.959Z,0.00
2023-04-07T02:56:59.422Z,0.00
2023-04-07T02:57:31.370Z,0.00
2023-04-07T02:58:19.394Z,0.00
2023-04-07T02:58:40.958Z,0.00
2023-04-07T02:59:07.489Z,0.00
2023-04-07T02:59:34.949Z,0.00
2023-04-07T02:59:55.646Z,0.00
2023-04-07T03:00:27.940Z,0.00
2023-04-07T03:01:32.360Z,0.00
2023-04-07T03:02:08.841Z,0.00
2023-04-07T03:02:35.498Z,0.00
2023-04-07T03:03:07.597Z,0.00
2023-04-07T03:03:35.180Z,0.00
2023-04-07T03:04:12.782Z,0.00
2023-04-07T03:04:34.931Z,0.00
2023-04-07T03:04:59.430Z,0.00
2023-04-07T03:05:37.869Z,0.00
2023-04-07T03:06:04.292Z,0.00
2023-04-07T03:06:35.348Z,0.00
2023-04-07T03:07:07.581Z,0.00
2023-04-07T03:07:34.921Z,0.00
2023-04-07T03:07:55.360Z,0.00
2023-04-07T03:08:27.682Z,0.00
2023-04-07T03:08:59.409Z,0.00
2023-04-07T03:09:31.377Z,0.00
2023-04-07T03:10:03.683Z,0.00
2023-04-07T03:10:40.985Z,0.00
2023-04-07T03:11:07.554Z,0.00
2023-04-07T03:11:35.526Z,0.00
2023-04-07T03:11:55.409Z,0.00
2023-04-07T03:12:28.187Z,0.00
2023-04-07T03:12:59.369Z,0.00
2023-04-07T03:13:31.379Z,0.00
2023-04-07T03:14:03.368Z,0.00
2023-04-07T03:14:35.389Z,0.00
2023-04-07T03:15:08.076Z,0.00
2023-04-07T03:15:35.753Z,0.00
2023-04-07T03:15:55.799Z,0.00
2023-04-07T03:16:27.393Z,0.00
2023-04-07T03:16:59.424Z,0.00
2023-04-07T03:17:31.377Z,0.00
2023-04-07T03:18:03.445Z,0.00
2023-04-07T03:18:35.350Z,0.00
2023-04-07T03:19:07.535Z,0.00
2023-04-07T03:19:34.933Z,0.00
2023-04-07T03:19:55.391Z,0.00
2023-04-07T03:20:27.672Z,0.00
2023-04-07T03:21:00.060Z,0.00
2023-04-07T03:21:31.347Z,0.00
2023-04-07T03:22:04.266Z,0.00
2023-04-07T03:22:35.775Z,0.00
2023-04-07T03:23:07.584Z,0.00
2023-04-07T03:23:35.630Z,0.00
2023-04-07T03:23:55.600Z,0.00
2023-04-07T03:24:27.353Z,0.00
2023-04-07T03:24:59.440Z,0.00
2023-04-07T03:25:31.760Z,0.00
2023-04-07T03:26:03.343Z,0.00
2023-04-07T03:26:35.360Z,0.00
2023-04-07T03:27:07.560Z,0.00
2023-04-07T03:27:34.935Z,0.00
2023-04-07T03:27:55.388Z,0.00
2023-04-07T03:28:28.088Z,0.00
2023-04-07T03:28:59.455Z,0.00
2023-04-07T03:29:31.389Z,0.00
2023-04-07T03:30:03.958Z,0.00
2023-04-07T03:30:35.480Z,0.00
2023-04-07T03:31:23.511Z,0.00
2023-04-07T03:31:55.369Z,0.00
2023-04-07T03:32:35.057Z,0.00
2023-04-07T03:32:59.518Z,0.00
2023-04-07T03:33:31.357Z,0.00
2023-04-07T03:34:19.390Z,0.00
2023-04-07T03:34:41.638Z,0.00
2023-04-07T03:35:08.045Z,0.00
2023-04-07T03:35:34.943Z,0.00
2023-04-07T03:36:27.373Z,0.00
2023-04-07T03:36:59.562Z,0.00
2023-04-07T03:37:31.395Z,0.00
2023-04-07T03:38:19.436Z,0.00
2023-04-07T03:38:40.980Z,0.00
2023-04-07T03:39:07.717Z,0.00
2023-04-07T03:39:35.216Z,0.00
2023-04-07T03:39:55.364Z,0.00
2023-04-07T03:40:35.227Z,0.00
2023-04-07T03:41:17.046Z,0.00
2023-04-07T03:41:37.531Z,0.00
2023-04-07T03:42:03.377Z,0.00
2023-04-07T03:42:35.373Z,0.00
2023-04-07T03:43:07.653Z,0.00
2023-04-07T03:43:34.974Z,0.00
2023-04-07T03:44:11.363Z,0.00
2023-04-07T03:44:35.644Z,0.00
2023-04-07T03:45:15.941Z,0.00
2023-04-07T03:45:37.584Z,0.00
2023-04-07T03:46:03.544Z,0.00
2023-04-07T03:46:35.605Z,0.00
2023-04-07T03:47:23.394Z,0.00
2023-04-07T03:47:41.281Z,0.00
2023-04-07T03:48:11.439Z,0.00
2023-04-07T03:48:35.235Z,0.00
2023-04-07T03:48:59.456Z,0.00
2023-04-07T03:49:31.340Z,0.00
2023-04-07T03:50:03.657Z,0.00
2023-04-07T03:50:35.350Z,0.00
2023-04-07T03:51:34.928Z,0.00
2023-04-07T03:51:55.397Z,0.00
2023-04-07T03:52:27.369Z,0.00
2023-04-07T03:52:59.546Z,0.00
2023-04-07T03:53:37.461Z,0.00
2023-04-07T03:54:04.378Z,0.00
2023-04-07T03:54:35.401Z,0.00
2023-04-07T03:55:23.919Z,0.00
2023-04-07T03:55:40.489Z,0.00
2023-04-07T03:56:11.737Z,0.00
2023-04-07T03:56:34.941Z,0.00
2023-04-07T03:56:59.471Z,0.00
2023-04-07T03:57:37.476Z,0.00
2023-04-07T03:58:19.419Z,0.00
2023-04-07T03:58:40.963Z,0.00
2023-04-07T03:59:07.666Z,0.00
2023-04-07T03:59:34.944Z,0.00
2023-04-07T03:59:55.361Z,0.00
2023-04-07T04:00:28.781Z,0.00
2023-04-07T04:01:35.060Z,0.00
2023-04-07T04:01:47.409Z,0.00
2023-04-07T04:02:35.180Z,0.00
2023-04-07T04:03:07.151Z,0.00
2023-04-07T04:03:34.595Z,0.00
2023-04-07T04:04:11.178Z,0.00
2023-04-07T04:04:34.725Z,0.00
2023-04-07T04:04:58.923Z,0.00
2023-04-07T04:05:31.281Z,0.00
2023-04-07T04:06:19.770Z,0.00
2023-04-07T04:06:41.445Z,0.00
2023-04-07T04:07:08.857Z,0.00
2023-04-07T04:07:36.809Z,0.00
2023-04-07T04:07:55.405Z,0.00
2023-04-07T04:08:27.929Z,0.00
2023-04-07T04:09:15.386Z,0.00
2023-04-07T04:09:36.954Z,0.00
2023-04-07T04:10:03.746Z,0.00
2023-04-07T04:10:37.194Z,0.00
2023-04-07T04:11:07.562Z,0.00
2023-04-07T04:11:35.328Z,0.00
2023-04-07T04:11:55.389Z,0.00
2023-04-07T04:12:27.925Z,0.00
2023-04-07T04:12:59.387Z,0.00
2023-04-07T04:13:31.368Z,0.00
2023-04-07T04:14:03.397Z,0.00
2023-04-07T04:14:35.432Z,0.00
2023-04-07T04:15:07.946Z,0.00
2023-04-07T04:15:35.077Z,0.00
2023-04-07T04:15:57.867Z,0.00
2023-04-07T04:16:28.205Z,0.00
2023-04-07T04:17:31.424Z,0.00
2023-04-07T04:18:03.496Z,0.00
2023-04-07T04:18:41.006Z,0.00
2023-04-07T04:19:08.467Z,0.00
2023-04-07T04:19:34.994Z,0.00
2023-04-07T04:19:55.452Z,0.00
2023-04-07T04:20:28.180Z,0.00
2023-04-07T04:20:59.661Z,0.00
2023-04-07T04:21:31.351Z,0.00
2023-04-07T04:22:20.420Z,0.00
2023-04-07T04:22:40.991Z,0.00
2023-04-07T04:23:23.385Z,0.00
2023-04-07T04:23:40.564Z,0.00
2023-04-07T04:24:27.997Z,0.00
2023-04-07T04:25:15.789Z,0.00
2023-04-07T04:25:38.831Z,0.00
2023-04-07T04:26:35.436Z,0.00
2023-04-07T04:27:35.359Z,0.00
2023-04-07T04:27:55.407Z,0.00
2023-04-07T04:28:27.907Z,0.00
2023-04-07T04:28:59.367Z,0.00
2023-04-07T04:29:32.905Z,0.00
2023-04-07T04:30:20.099Z,0.00
2023-04-07T04:30:40.996Z,0.00
2023-04-07T04:31:07.407Z,0.00
2023-04-07T04:31:35.018Z,0.00
2023-04-07T04:31:56.076Z,0.00
2023-04-07T04:32:27.997Z,0.00
2023-04-07T04:32:59.440Z,0.00
2023-04-07T04:33:31.576Z,0.00
2023-04-07T04:34:03.344Z,0.00
2023-04-07T04:34:35.436Z,0.00
2023-04-07T04:35:08.471Z,0.00
2023-04-07T04:35:34.958Z,0.00
2023-04-07T04:36:11.349Z,0.00
2023-04-07T04:36:36.559Z,0.00
2023-04-07T04:36:59.430Z,0.00
2023-04-07T04:37:31.386Z,0.00
2023-04-07T04:38:36.194Z,0.00
2023-04-07T04:39:07.375Z,0.00
2023-04-07T04:39:34.944Z,0.00
2023-04-07T04:39:55.440Z,0.00
2023-04-07T04:40:35.304Z,0.00
2023-04-07T04:40:59.413Z,0.00
2023-04-07T04:41:31.370Z,0.00
2023-04-07T04:42:03.408Z,0.00
2023-04-07T04:42:35.416Z,0.00
2023-04-07T04:43:35.032Z,0.00
2023-04-07T04:43:55.762Z,0.00
2023-04-07T04:44:27.908Z,0.00
2023-04-07T04:45:01.032Z,0.00
2023-04-07T04:45:31.418Z,0.00
2023-04-07T04:46:03.534Z,0.00
2023-04-07T04:46:35.404Z,0.00
2023-04-07T04:47:07.454Z,0.00
2023-04-07T04:47:34.974Z,0.00
2023-04-07T04:47:55.846Z,0.00
2023-04-07T04:48:27.991Z,0.00
2023-04-07T04:48:59.379Z,0.00
2023-04-07T04:49:36.956Z,0.00
2023-04-07T04:50:03.735Z,0.00
2023-04-07T04:50:35.464Z,0.00
2023-04-07T04:51:07.358Z,0.00
2023-04-07T04:51:34.963Z,0.00
2023-04-07T04:51:55.369Z,0.00
2023-04-07T04:52:28.007Z,0.00
2023-04-07T04:52:59.427Z,0.00
2023-04-07T04:53:31.663Z,0.00
2023-04-07T04:54:03.373Z,0.00
2023-04-07T04:54:37.057Z,0.00
2023-04-07T04:55:07.689Z,0.00
2023-04-07T04:55:35.557Z,0.00
2023-04-07T04:55:55.700Z,0.00
2023-04-07T04:56:27.974Z,0.00
2023-04-07T04:57:15.392Z,0.00
2023-04-07T04:57:37.758Z,0.00
2023-04-07T04:58:03.409Z,0.00
2023-04-07T04:58:35.397Z,0.00
2023-04-07T04:59:07.377Z,0.00
2023-04-07T04:59:34.927Z,0.00
2023-04-07T04:59:55.370Z,0.00
2023-04-07T05:00:28.372Z,0.00
2023-04-07T05:00:59.495Z,0.00
2023-04-07T05:01:33.332Z,0.00
2023-04-07T05:02:03.464Z,0.00
2023-04-07T05:02:35.758Z,0.00
2023-04-07T05:03:23.656Z,0.00
2023-04-07T05:03:40.619Z,0.00
2023-04-07T05:04:11.600Z,0.00
2023-04-07T05:04:35.151Z,0.00
2023-04-07T05:04:59.413Z,0.00
2023-04-07T05:05:31.701Z,0.00
2023-04-07T05:06:37.959Z,0.00
2023-04-07T05:06:43.128Z,0.00
2023-04-07T05:07:23.364Z,0.00
2023-04-07T05:08:11.429Z,0.00
2023-04-07T05:08:34.891Z,0.00
2023-04-07T05:08:59.351Z,0.00
2023-04-07T05:09:36.916Z,0.00
2023-04-07T05:10:03.663Z,0.00
2023-04-07T05:10:35.353Z,0.36
2023-04-07T05:11:07.335Z,0.00
2023-04-07T05:11:34.878Z,0.00
2023-04-07T05:12:11.349Z,0.36
2023-04-07T05:12:34.900Z,0.36
2023-04-07T05:13:38.237Z,0.85
2023-04-07T05:14:19.455Z,1.22
2023-04-07T05:14:41.175Z,1.22
2023-04-07T05:15:35.553Z,1.22
2023-04-07T05:16:11.598Z,0.85
2023-04-07T05:16:35.882Z,0.85
2023-04-07T05:17:37.025Z,1.22
2023-04-07T05:18:03.546Z,1.22
2023-04-07T05:18:41.075Z,1.71
2023-04-07T05:19:07.466Z,1.71
2023-04-07T05:19:35.042Z,2.08
2023-04-07T05:19:56.238Z,1.22
2023-04-07T05:20:28.297Z,2.08
2023-04-07T05:21:15.444Z,1.71
2023-04-07T05:21:36.965Z,1.71
2023-04-07T05:22:19.451Z,1.71
2023-04-07T05:22:41.061Z,1.71
2023-04-07T05:23:08.202Z,2.08
2023-04-07T05:23:35.011Z,1.71
2023-04-07T05:24:35.966Z,2.57
2023-04-07T05:24:59.438Z,2.57
2023-04-07T05:25:37.302Z,2.08
2023-04-07T05:26:03.530Z,2.57
2023-04-07T05:26:35.498Z,2.57
2023-04-07T05:27:23.424Z,3.43
2023-04-07T05:27:55.535Z,2.94
2023-04-07T05:28:34.995Z,2.94
2023-04-07T05:28:59.524Z,2.94
2023-04-07T05:29:32.144Z,3.79
2023-04-07T05:30:19.921Z,2.94
2023-04-07T05:30:41.071Z,3.43
2023-04-07T05:31:08.068Z,2.94
2023-04-07T05:31:35.625Z,3.79
2023-04-07T05:31:55.604Z,2.94
2023-04-07T05:32:28.026Z,4.77
2023-04-07T05:32:59.502Z,3.43
2023-04-07T05:33:31.443Z,3.79
2023-04-07T05:34:03.505Z,3.79
2023-04-07T05:34:35.800Z,4.28
2023-04-07T05:35:23.812Z,3.43
2023-04-07T05:35:40.643Z,3.79
2023-04-07T05:36:12.747Z,4.28
2023-04-07T05:36:35.061Z,4.28
2023-04-07T05:36:59.473Z,4.77
2023-04-07T05:37:31.475Z,4.77
2023-04-07T05:38:03.514Z,4.77
2023-04-07T05:38:41.062Z,4.77
2023-04-07T05:39:07.480Z,5.63
2023-04-07T05:39:34.980Z,5.63
2023-04-07T05:39:55.558Z,5.14
2023-04-07T05:40:37.417Z,5.99
2023-04-07T05:41:15.545Z,6.48
2023-04-07T05:41:37.032Z,6.48
2023-04-07T05:42:19.483Z,6.85
2023-04-07T05:42:41.798Z,6.85
2023-04-07T05:43:07.457Z,7.34
2023-04-07T05:43:35.033Z,7.34
2023-04-07T05:44:27.980Z,8.56
2023-04-07T05:44:59.499Z,9.54
2023-04-07T05:45:32.034Z,10.39
2023-04-07T05:46:03.814Z,11.25
2023-04-07T05:46:35.497Z,12.48
2023-04-07T05:47:23.459Z,13.33
2023-04-07T05:47:40.616Z,13.82
2023-04-07T05:48:34.994Z,14.31
2023-04-07T05:49:20.230Z,16.02
2023-04-07T05:49:36.995Z,16.02
2023-04-07T05:50:03.938Z,16.39
2023-04-07T05:50:36.395Z,16.02
2023-04-07T05:51:35.048Z,16.02
2023-04-07T05:51:55.539Z,16.39
2023-04-07T05:52:36.796Z,16.39
2023-04-07T05:52:59.437Z,16.02
2023-04-07T05:53:31.514Z,16.39
2023-04-07T05:54:03.577Z,15.53
2023-04-07T05:54:35.780Z,14.68
2023-04-07T05:55:07.749Z,15.53
2023-04-07T05:55:35.654Z,15.53
2023-04-07T05:56:35.799Z,15.53
2023-04-07T05:57:36.987Z,15.53
2023-04-07T05:58:41.045Z,15.53
2023-04-07T05:59:35.517Z,15.53
2023-04-07T06:00:15.238Z,19.45
2023-04-07T06:00:35.013Z,20.31
2023-04-07T06:00:59.731Z,20.31
2023-04-07T06:01:31.511Z,21.65
2023-04-07T06:02:03.608Z,21.65
2023-04-07T06:02:36.041Z,22.87
2023-04-07T06:03:07.805Z,23.85
2023-04-07T06:03:35.088Z,25.56
2023-04-07T06:03:55.482Z,25.94
2023-04-07T06:04:28.041Z,26.79
2023-04-07T06:04:59.469Z,26.79
2023-04-07T06:05:31.943Z,26.79
2023-04-07T06:06:03.571Z,26.79
2023-04-07T06:06:36.459Z,25.07
2023-04-07T06:07:07.416Z,24.22
2023-04-07T06:07:35.026Z,23.36
2023-04-07T06:07:55.455Z,22.02
2023-04-07T06:08:28.093Z,21.65
2023-04-07T06:08:59.507Z,21.16
2023-04-07T06:09:31.486Z,21.65
2023-04-07T06:10:03.850Z,21.65
2023-04-07T06:10:35.569Z,22.02
2023-04-07T06:11:07.442Z,23.36
2023-04-07T06:11:35.754Z,23.36
2023-04-07T06:11:55.488Z,25.07
2023-04-07T06:12:27.947Z,25.94
2023-04-07T06:13:01.271Z,25.94
2023-04-07T06:13:31.431Z,25.94
2023-04-07T06:14:03.520Z,25.56
2023-04-07T06:14:35.478Z,24.22
2023-04-07T06:15:07.979Z,24.22
2023-04-07T06:15:35.046Z,24.22
2023-04-07T06:15:55.775Z,22.87
2023-04-07T06:16:27.989Z,22.87
2023-04-07T06:16:59.567Z,23.36
2023-04-07T06:17:31.571Z,22.87
2023-04-07T06:18:03.572Z,23.85
2023-04-07T06:18:35.473Z,23.36
2023-04-07T06:19:07.518Z,22.51
2023-04-07T06:19:35.016Z,23.36
2023-04-07T06:19:55.433Z,23.36
2023-04-07T06:20:28.461Z,23.36
2023-04-07T06:20:59.498Z,23.36
2023-04-07T06:21:31.481Z,22.87
2023-04-07T06:22:03.475Z,22.87
2023-04-07T06:22:37.044Z,23.36
2023-04-07T06:23:07.459Z,23.36
2023-04-07T06:23:35.012Z,23.36
2023-04-07T06:23:55.537Z,24.22
2023-04-07T06:24:28.074Z,23.85
2023-04-07T06:24:59.439Z,25.07
2023-04-07T06:25:31.780Z,25.94
2023-04-07T06:26:03.575Z,25.56
2023-04-07T06:26:36.010Z,25.94
2023-04-07T06:27:07.407Z,26.42
2023-04-07T06:27:35.354Z,27.28
2023-04-07T06:27:55.452Z,26.79
2023-04-07T06:28:28.047Z,27.28
2023-04-07T06:29:00.172Z,27.65
2023-04-07T06:29:31.509Z,28.63
2023-04-07T06:30:04.140Z,29.48
2023-04-07T06:30:35.498Z,30.70
2023-04-07T06:31:07.511Z,31.56
2023-04-07T06:31:35.025Z,31.56
2023-04-07T06:31:55.510Z,32.05
2023-04-07T06:32:28.108Z,31.56
2023-04-07T06:32:59.493Z,32.05
2023-04-07T06:33:31.551Z,31.56
2023-04-07T06:34:03.515Z,32.42
2023-04-07T06:34:35.548Z,32.42
2023-04-07T06:35:08.196Z,33.39
2023-04-07T06:35:35.700Z,33.39
2023-04-07T06:35:55.701Z,33.76
2023-04-07T06:36:28.022Z,34.25
2023-04-07T06:36:59.766Z,33.39
2023-04-07T06:37:31.463Z,33.76
2023-04-07T06:38:03.461Z,34.25
2023-04-07T06:38:38.617Z,34.25
2023-04-07T06:39:07.486Z,35.11
2023-04-07T06:39:35.718Z,34.62
2023-04-07T06:39:55.506Z,34.62
2023-04-07T06:40:28.386Z,36.82
2023-04-07T06:40:59.483Z,37.68
2023-04-07T06:41:31.513Z,39.02
2023-04-07T06:42:03.563Z,40.73
2023-04-07T06:42:35.449Z,42.45
2023-04-07T06:43:07.505Z,45.51
2023-04-07T06:43:35.842Z,45.87
2023-04-07T06:43:55.448Z,48.07
2023-04-07T06:44:27.946Z,51.14
2023-04-07T06:45:01.106Z,52.85
2023-04-07T06:45:31.517Z,54.19
2023-04-07T06:46:03.688Z,55.90
2023-04-07T06:46:36.035Z,57.62
2023-04-07T06:47:07.470Z,59.82
2023-04-07T06:47:35.329Z,59.82
2023-04-07T06:47:55.510Z,61.53
2023-04-07T06:48:27.949Z,61.17
2023-04-07T06:48:59.442Z,61.53
2023-04-07T06:49:32.020Z,62.02
2023-04-07T06:50:03.915Z,62.88
2023-04-07T06:50:35.674Z,62.39
2023-04-07T06:51:07.455Z,62.39
2023-04-07T06:51:35.080Z,62.88
2023-04-07T06:51:55.655Z,62.39
2023-04-07T06:52:28.052Z,64.59
2023-04-07T06:52:59.450Z,64.96
2023-04-07T06:53:31.477Z,66.31
2023-04-07T06:54:03.476Z,70.22
2023-04-07T06:54:36.179Z,71.93
2023-04-07T06:55:07.953Z,74.14
2023-04-07T06:55:35.050Z,74.50
2023-04-07T06:55:55.730Z,76.34
2023-04-07T06:56:28.205Z,78.05
2023-04-07T06:56:59.465Z,78.05